LEAM/LEI METAR and TAF weather

Enter ICAO airport designator
Station Type Date Time Source
LEAM METAR 2022/06/29 01:00 UTC NOAA

LEAM 290100Z AUTO VRB02KT CAVOK 21/20 Q1016


Station Type Date Time Source
LEAM Decoded METAR 2022/06/29 01:00 UTC NOAA

Almeria / Aeropuerto, Spain (LEAM) 36-51N 002-23W 21M
Jun 28, 2022 - 09:00 PM EDT / 2022.06.29 0100 UTC
Wind: Variable at 2 MPH (2 KT):0
Visibility: greater than 7 mile(s):0
Temperature: 69 F (21 C)
Dew Point: 68 F (20 C)
Relative Humidity: 94%
Pressure (altimeter): 30.00 in. Hg (1016 hPa)
ob: LEAM 290100Z AUTO VRB02KT CAVOK 21/20 Q1016
cycle: 1

Station Type Date Time Source
LEAM TAF 2022/06/28 18:27 UTC NOAA

TAF LEAM 281700Z 2818/2918 18010KT CAVOK TX25/2914Z TN19/2906Z
BECMG 2819/2821 VRB02KT
BECMG 2908/2910 20010KT

Example: see airport list